JUNEAU LIBRARY AK US NWS current weather conditions

sailwx.info

Wind from 260 at 1 knots gusting 4

Air temperature 0.7° C
Dewpoint -5.9° C

Last reported at 2020-Apr-07 16:03 UTC.
Time now 2020-Apr-07 16:52 UTC

Location: N 58°18' W 134°24'.
View on Google Maps.

See reports from other nearby stations

  
Tides and Currents Weather Stations Pressure Air Temp Water Temp Dewpoint Dewpoint Depression Visibility Wind Speed Wind Dir Waves Ship Positions
date/time (UTC)wind fromknots sea level pressurealtimeterstation pressurevisibilityair tempwater tempwave heightnotes
2020-Apr-07 16:03 260 1 gusting 4 0.7
2020-Apr-07 15:53 250 2 gusting 6 0.6
2020-Apr-07 15:43 300 0 gusting 4 0.5
2020-Apr-07 15:33 330 1 gusting 2 0.2
2020-Apr-07 15:23 280 0 gusting 2 0.2
2020-Apr-07 15:13 060 2 gusting 5 -0.0
2020-Apr-07 15:03 220 1 gusting 6 -0.0
2020-Apr-07 14:53 100 1 gusting 2 -0.0
2020-Apr-07 14:43 050 1 gusting 2 -0.0
2020-Apr-07 14:33 020 0 gusting 1 -0.0
2020-Apr-07 14:23 030 0 gusting 4 -0.0
2020-Apr-07 14:13 -0.0
2020-Apr-07 14:03 360 1 gusting 4 -0.1
2020-Apr-07 13:53 330 0 gusting 4 -0.0
2020-Apr-07 13:43 280 0 gusting 4 -0.1
2020-Apr-07 13:33 120 1 gusting 6 -0.1
2020-Apr-07 13:23 080 1 gusting 4 -0.1
2020-Apr-07 13:13 230 1 gusting 5 -0.1
2020-Apr-07 13:03 170 1 gusting 6 -0.0
2020-Apr-07 12:53 -0.1
2020-Apr-07 12:43 010 1 gusting 6 -0.1
2020-Apr-07 12:33 350 1 gusting 2 -0.1
2020-Apr-07 12:23 040 4 gusting 6 -0.1
2020-Apr-07 12:13 300 1 gusting 5 -0.0
2020-Apr-07 12:03 260 2 gusting 7 0.1
2020-Apr-07 11:53 140 2 gusting 6 0.1
2020-Apr-07 11:43 100 2 gusting 6 0.1
2020-Apr-07 11:33 150 4 gusting 6 0.2
2020-Apr-07 11:23 160 4 gusting 12 0.3
2020-Apr-07 11:13 180 1 gusting 6 0.3
2020-Apr-07 11:03 120 0 gusting 4 0.3
2020-Apr-07 10:53 100 1 gusting 5 0.2
2020-Apr-07 10:43 100 4 gusting 8 0.1
2020-Apr-07 10:33 110 4 gusting 9 0.1
2020-Apr-07 10:23 140 2 gusting 9 0.3
2020-Apr-07 10:13 160 2 gusting 9 0.3
2020-Apr-07 10:03 150 4 gusting 9 0.4
2020-Apr-07 09:53 180 4 gusting 13 0.4
2020-Apr-07 09:43 190 5 gusting 13 0.5
2020-Apr-07 09:33 200 2 gusting 7 0.5
2020-Apr-07 09:23 210 4 gusting 11 0.4
2020-Apr-07 09:13 170 6 gusting 13 0.4
2020-Apr-07 09:03 160 5 gusting 14 0.4
2020-Apr-07 08:53 210 6 gusting 14 0.4
2020-Apr-07 08:43 190 6 gusting 15 0.3
2020-Apr-07 08:33 150 5 gusting 13 0.2
2020-Apr-07 08:23 130 5 gusting 9 0.2
2020-Apr-07 08:13 150 5 gusting 12 0.3
2020-Apr-07 08:03 140 5 gusting 12 0.4
2020-Apr-07 07:53 140 6 gusting 11 0.4
2020-Apr-07 07:43 130 4 gusting 8 0.3
2020-Apr-07 07:33 110 2 gusting 6 0.4
2020-Apr-07 07:23 220 2 gusting 6 0.3
2020-Apr-07 07:13 160 6 gusting 12 0.2
2020-Apr-07 07:03 170 5 gusting 9 0.2
2020-Apr-07 06:53 220 4 gusting 8 0.3
2020-Apr-07 06:43 230 4 gusting 13 0.4
2020-Apr-07 06:33 210 5 gusting 13 0.5
2020-Apr-07 06:23 200 4 gusting 9 0.6
2020-Apr-07 06:13 130 4 gusting 9 0.6
2020-Apr-07 06:03 200 2 gusting 7 0.6
2020-Apr-07 05:53 190 4 gusting 13 0.6
2020-Apr-07 05:43 170 5 gusting 14 0.6
2020-Apr-07 05:33 220 4 gusting 7 0.6
2020-Apr-07 05:23 220 4 gusting 11 0.8
2020-Apr-07 05:13 270 2 gusting 6 0.8
2020-Apr-07 05:03 290 6 gusting 13 0.8
2020-Apr-07 04:53 200 2 gusting 12 0.8
2020-Apr-07 04:43 120 1 gusting 5 0.8
2020-Apr-07 04:33 060 0 gusting 4 0.7
2020-Apr-07 04:23 360 2 gusting 5 0.6
2020-Apr-07 04:13 340 1 gusting 5 0.7
2020-Apr-07 04:03 240 1 gusting 7 0.9
2020-Apr-07 03:53 200 6 gusting 14 1.0
2020-Apr-07 03:43 150 2 gusting 12 1.1
2020-Apr-07 03:33 240 2 gusting 9 1.1
2020-Apr-07 03:23 130 4 gusting 12 1.2
2020-Apr-07 03:13 210 5 gusting 12 1.3
2020-Apr-07 03:03 270 4 gusting 12 1.4
2020-Apr-07 02:53 270 4 gusting 8 1.9
2020-Apr-07 02:43 210 5 gusting 11 1.8
2020-Apr-07 02:33 250 6 gusting 13 2.0
2020-Apr-07 02:23 290 6 gusting 17 2.1
2020-Apr-07 02:13 290 7 gusting 20 2.3
2020-Apr-07 02:03 270 7 gusting 17 2.6
2020-Apr-07 01:53 230 5 gusting 17 2.6
2020-Apr-07 01:43 250 6 gusting 27 2.7
2020-Apr-07 01:33 280 6 gusting 20 2.6
2020-Apr-07 01:23 280 9 gusting 25 2.7
2020-Apr-07 01:13 280 8 gusting 20 2.9
2020-Apr-07 01:03 280 11 gusting 26 3.3
2020-Apr-07 00:53 290 8 gusting 27 3.5
2020-Apr-07 00:43 280 7 gusting 22 4.1
2020-Apr-07 00:33 290 6 gusting 15 3.8
2020-Apr-07 00:23 290 6 gusting 13 3.5
2020-Apr-07 00:13 300 7 gusting 19 3.3
2020-Apr-06 23:53 290 8 gusting 24 3.2
2020-Apr-06 23:43 230 6 gusting 22 3.6
2020-Apr-06 23:33 220 7 gusting 20 3.6
2020-Apr-06 23:23 270 8 gusting 20 3.4
2020-Apr-06 23:13 310 11 gusting 27 2.8
2020-Apr-06 23:03 310 12 gusting 31 2.9
2020-Apr-06 22:53 270 9 gusting 27 4.5
2020-Apr-06 22:43 330 11 gusting 21 4.2
2020-Apr-06 22:33 320 11 gusting 29 4.1
2020-Apr-06 22:23 300 12 gusting 27 4.2
2020-Apr-06 22:13 310 11 gusting 27 4.0
2020-Apr-06 22:03 310 7 gusting 27 4.3
2020-Apr-06 21:53 300 6 gusting 21 3.8
2020-Apr-06 21:43 250 6 gusting 17 4.2
2020-Apr-06 21:33 220 7 gusting 20 5.6
2020-Apr-06 21:23 250 7 gusting 24 5.9
2020-Apr-06 21:13 310 7 gusting 19 5.6
2020-Apr-06 21:03 290 6 gusting 15 4.9
2020-Apr-06 20:53 290 4 gusting 9 3.7
2020-Apr-06 20:43 230 5 gusting 11 3.9
2020-Apr-06 20:33 230 1 gusting 6 3.6
2020-Apr-06 20:23 300 5 gusting 9 3.0
2020-Apr-06 20:13 270 4 gusting 6 3.2
2020-Apr-06 20:03 280 4 gusting 8 3.1
2020-Apr-06 19:53 110 4 gusting 12 3.1
2020-Apr-06 19:43 130 5 gusting 13 2.6
2020-Apr-06 19:33 150 6 gusting 13 2.8
2020-Apr-06 19:23 170 2 gusting 12 3.1
2020-Apr-06 19:13 130 4 gusting 12 2.8
2020-Apr-06 19:03 110 6 gusting 13 2.6
2020-Apr-06 18:53 120 6 gusting 13 3.0
2020-Apr-06 18:43 120 4 gusting 13 3.2
2020-Apr-06 18:33 110 5 gusting 11 3.3
2020-Apr-06 18:23 120 4 gusting 9 3.2
2020-Apr-06 18:13 090 5 gusting 12 3.1
2020-Apr-06 18:03 090 6 gusting 13 3.0
2020-Apr-06 17:53 100 6 gusting 12 3.1
2020-Apr-06 17:43 090 6 gusting 17 3.1
2020-Apr-06 17:33 100 8 gusting 13 3.0
2020-Apr-06 17:23 150 6 gusting 15 3.0
2020-Apr-06 17:13 120 6 gusting 14 2.9
2020-Apr-06 17:03 110 6 gusting 11 2.9
2020-Apr-06 16:53 090 6 gusting 19 2.8
2020-Apr-06 16:43 190 4 gusting 13 2.8
2020-Apr-06 16:33 150 5 gusting 13 2.8
2020-Apr-06 16:23 070 4 gusting 11 2.8
2020-Apr-06 16:13 190 4 gusting 11 2.8
2020-Apr-06 16:03 180 5 gusting 15 2.8
2020-Apr-06 15:53 200 6 gusting 17 2.8
2020-Apr-06 15:43 220 5 gusting 13 2.6
2020-Apr-06 15:33 210 5 gusting 14 2.4
2020-Apr-06 15:23 160 5 gusting 13 1.9
2020-Apr-06 15:13 120 4 gusting 9 1.6
2020-Apr-06 15:03 110 6 gusting 12 1.5
2020-Apr-06 14:53 120 5 gusting 11 1.0
2020-Apr-06 14:43 140 4 gusting 7 0.8
2020-Apr-06 14:33 100 5 gusting 12 0.8
2020-Apr-06 14:23 140 5 gusting 12 0.9
2020-Apr-06 14:13 090 4 gusting 12 1.3
2020-Apr-06 14:03 190 6 gusting 18 2.1
2020-Apr-06 13:53 150 6 gusting 18 2.6
2020-Apr-06 13:43 170 4 gusting 13 3.0
2020-Apr-06 13:33 210 2 gusting 13 3.0
2020-Apr-06 13:23 240 4 gusting 7 2.9
2020-Apr-06 13:13 220 4 gusting 8 2.8
2020-Apr-06 13:03 200 5 gusting 12 2.9
2020-Apr-06 12:53 140 6 gusting 17 3.0
2020-Apr-06 12:43 140 7 gusting 15 3.0
2020-Apr-06 12:33 110 5 gusting 11 2.8
2020-Apr-06 12:23 110 1 gusting 7 2.8
2020-Apr-06 12:13 120 4 gusting 11 2.7
2020-Apr-06 12:03 130 4 gusting 18 2.6
2020-Apr-06 11:53 120 5 gusting 14 2.7
2020-Apr-06 11:43 120 6 gusting 20 2.7
2020-Apr-06 11:33 120 7 gusting 19 2.7
2020-Apr-06 11:23 120 8 gusting 19 2.5
2020-Apr-06 11:13 110 6 gusting 15 2.3
2020-Apr-06 11:03 110 6 gusting 15 2.1
2020-Apr-06 10:53 110 6 gusting 14 2.0
2020-Apr-06 10:43 120 6 gusting 17 2.1
2020-Apr-06 10:33 130 8 gusting 19 2.4
2020-Apr-06 10:23 110 7 gusting 20 2.5
2020-Apr-06 10:13 110 7 gusting 18 2.5
2020-Apr-06 10:03 120 6 gusting 15 2.5
2020-Apr-06 09:53 110 6 gusting 13 2.6
2020-Apr-06 09:43 120 6 gusting 15 2.7
2020-Apr-06 09:33 120 5 gusting 12 2.7
2020-Apr-06 09:23 110 5 gusting 11 2.6
2020-Apr-06 09:13 100 6 gusting 13 2.5
2020-Apr-06 09:03 110 6 gusting 13 2.5
2020-Apr-06 08:53 130 6 gusting 13 2.5
2020-Apr-06 08:43 140 5 gusting 13 2.5
2020-Apr-06 08:33 130 2 gusting 12 2.5
2020-Apr-06 08:23 170 1 gusting 6 2.5
2020-Apr-06 08:13 170 1 gusting 6 2.4
2020-Apr-06 08:03 120 4 gusting 9 2.3
2020-Apr-06 07:53 120 6 gusting 17 2.2
2020-Apr-06 07:43 120 5 gusting 13 2.2
2020-Apr-06 07:33 120 6 gusting 13 2.4
2020-Apr-06 07:23 130 6 gusting 15 2.6
2020-Apr-06 07:13 120 4 gusting 12 2.7
2020-Apr-06 07:03 110 4 gusting 7 2.7
2020-Apr-06 06:53 110 7 gusting 14 2.7
2020-Apr-06 06:43 100 6 gusting 14 2.8
2020-Apr-06 06:33 110 4 gusting 14 2.9
2020-Apr-06 06:23 100 4 gusting 13 2.9
2020-Apr-06 06:13 110 5 gusting 12 2.9
2020-Apr-06 06:03 110 5 gusting 13 2.9
2020-Apr-06 05:53 040 1 gusting 5 2.9
2020-Apr-06 05:43 110 1 gusting 6 2.9
2020-Apr-06 05:33 110 0 gusting 5 2.9
2020-Apr-06 05:23 140 1 gusting 4 2.8
2020-Apr-06 05:13 120 1 gusting 6 2.7
2020-Apr-06 05:03 110 4 gusting 7 2.7
2020-Apr-06 04:53 100 4 gusting 6 2.7
2020-Apr-06 04:43 090 1 gusting 5 2.9
2020-Apr-06 04:33 110 1 gusting 6 2.8
2020-Apr-06 04:23 110 4 gusting 7 2.9
2020-Apr-06 04:13 100 2 gusting 7 3.1
2020-Apr-06 04:03 070 0 gusting 1 3.2
2020-Apr-06 03:53 110 1 gusting 5 3.2
2020-Apr-06 03:43 110 4 gusting 6 3.2
2020-Apr-06 03:33 100 4 gusting 8 3.3
2020-Apr-06 03:23 100 2 gusting 8 3.4
2020-Apr-06 03:13 090 2 gusting 5 3.5
2020-Apr-06 03:03 090 1 gusting 4 3.6
2020-Apr-06 02:53 100 2 gusting 6 3.6
2020-Apr-06 02:43 130 4 gusting 7 3.7
2020-Apr-06 02:33 150 4 gusting 8 3.7
2020-Apr-06 02:23 140 4 gusting 9 3.7
2020-Apr-06 02:13 140 5 gusting 9 3.9
2020-Apr-06 02:03 140 4 gusting 7 4.1
2020-Apr-06 01:53 140 2 gusting 7 4.2
2020-Apr-06 01:43 130 4 gusting 8 4.3
2020-Apr-06 01:33 140 4 gusting 6 4.3
2020-Apr-06 01:23 150 4 gusting 8 4.1
2020-Apr-06 01:13 130 6 gusting 13 4.0
2020-Apr-06 01:03 130 6 gusting 11 4.1
2020-Apr-06 00:53 110 6 gusting 12 4.1
2020-Apr-06 00:43 120 7 gusting 13 4.2
2020-Apr-06 00:33 120 6 gusting 13 4.5
2020-Apr-06 00:23 140 6 gusting 13 4.7
2020-Apr-06 00:13 150 5 gusting 9 4.7
2020-Apr-05 23:53 160 5 gusting 11 5.2
2020-Apr-05 23:43 150 4 gusting 6 5.2
2020-Apr-05 23:33 130 4 gusting 9 4.9
2020-Apr-05 23:23 130 6 gusting 13 4.6
2020-Apr-05 23:13 170 5 gusting 11 5.3
2020-Apr-05 23:03 150 4 gusting 8 5.3
2020-Apr-05 22:53 140 5 gusting 11 5.2
2020-Apr-05 22:43 150 5 gusting 13 5.1
2020-Apr-05 22:33 140 5 gusting 11 4.9
2020-Apr-05 22:23 130 6 gusting 14 4.4
2020-Apr-05 22:13 130 7 gusting 14 4.3
2020-Apr-05 22:03 130 6 gusting 13 4.4
2020-Apr-05 21:53 130 6 gusting 15 4.2
2020-Apr-05 21:43 130 6 gusting 14 3.9
2020-Apr-05 21:33 130 6 gusting 15 3.9
2020-Apr-05 21:23 140 6 gusting 15 4.2
2020-Apr-05 21:13 130 6 gusting 17 4.4
2020-Apr-05 21:03 140 6 gusting 15 4.5
2020-Apr-05 20:53 140 6 gusting 15 4.7
2020-Apr-05 20:43 150 6 gusting 13 4.8
2020-Apr-05 20:33 140 6 gusting 13 4.7
2020-Apr-05 20:23 140 6 gusting 17 4.3
2020-Apr-05 20:13 140 7 gusting 17 4.0
2020-Apr-05 20:03 140 6 gusting 18 4.1
2020-Apr-05 19:53 130 6 gusting 13 4.0
2020-Apr-05 19:43 150 6 gusting 14 3.9
2020-Apr-05 19:33 140 6 gusting 17 3.7
2020-Apr-05 19:23 150 6 gusting 17 3.7
2020-Apr-05 19:13 140 5 gusting 13 3.5
2020-Apr-05 19:03 150 6 gusting 13 3.3
2020-Apr-05 18:53 150 6 gusting 13 3.2
2020-Apr-05 18:43 150 6 gusting 12 3.3
2020-Apr-05 18:33 140 5 gusting 11 3.3
2020-Apr-05 18:23 140 4 gusting 9 3.1
2020-Apr-05 18:13 130 5 gusting 12 2.6
2020-Apr-05 18:03 140 5 gusting 12 2.7
2020-Apr-05 17:53 160 5 gusting 9 3.2
2020-Apr-05 17:43 150 1 gusting 6 3.5
2020-Apr-05 17:33 280 0 gusting 2 2.9
2020-Apr-05 17:23 1.5
2020-Apr-05 17:13 110 1 gusting 2 0.7
2020-Apr-05 17:03 -0.0
2020-Apr-05 16:53 -2.0
2020-Apr-05 16:43 -2.4
2020-Apr-05 16:33 -2.8
2020-Apr-05 16:23 300 0 gusting 1 -3.1
2020-Apr-05 16:13 -3.4
2020-Apr-05 16:03 -3.8